createdAt,value
2023-07-24T00:02:24.617Z,17.98
2023-07-24T00:04:51.101Z,17.97
2023-07-24T00:07:17.597Z,17.95
2023-07-24T00:09:44.151Z,17.93
2023-07-24T00:12:10.568Z,17.96
2023-07-24T00:14:36.958Z,18.02
2023-07-24T00:17:03.411Z,17.98
2023-07-24T00:19:29.837Z,17.96
2023-07-24T00:21:56.196Z,17.96
2023-07-24T00:24:22.609Z,17.92
2023-07-24T00:26:49.105Z,17.99
2023-07-24T00:29:15.494Z,17.98
2023-07-24T00:31:41.868Z,17.93
2023-07-24T00:34:08.242Z,17.93
2023-07-24T00:36:34.633Z,17.93
2023-07-24T00:39:01.130Z,17.86
2023-07-24T00:41:27.512Z,17.88
2023-07-24T00:43:53.879Z,17.94
2023-07-24T00:46:20.673Z,17.80
2023-07-24T00:48:47.112Z,17.83
2023-07-24T00:51:13.634Z,17.77
2023-07-24T00:53:40.223Z,17.73
2023-07-24T00:56:07.665Z,17.75
2023-07-24T00:58:38.002Z,17.75
2023-07-24T01:01:04.861Z,17.71
2023-07-24T01:03:35.845Z,17.67
2023-07-24T01:06:03.499Z,17.73
2023-07-24T01:08:29.940Z,17.73
2023-07-24T01:11:00.936Z,17.79
2023-07-24T01:13:31.086Z,17.78
2023-07-24T01:16:04.329Z,17.78
2023-07-24T01:18:31.768Z,17.88
2023-07-24T01:21:00.521Z,17.89
2023-07-24T01:23:56.535Z,17.91
2023-07-24T01:26:25.034Z,17.89
2023-07-24T01:28:51.594Z,17.85
2023-07-24T01:31:18.237Z,17.87
2023-07-24T01:33:45.630Z,17.86
2023-07-24T01:36:14.026Z,17.81
2023-07-24T01:38:41.214Z,17.77
2023-07-24T01:41:08.499Z,17.88
2023-07-24T01:43:35.355Z,17.88
2023-07-24T01:46:01.815Z,17.85
2023-07-24T01:48:28.217Z,17.84
2023-07-24T01:50:54.682Z,17.90
2023-07-24T01:53:21.146Z,17.91
2023-07-24T01:55:47.564Z,17.79
2023-07-24T01:58:13.944Z,17.89
2023-07-24T02:00:40.369Z,17.88
2023-07-24T02:03:07.980Z,17.87
2023-07-24T02:05:35.430Z,17.88
2023-07-24T02:08:01.900Z,17.85
2023-07-24T02:10:28.327Z,17.82
2023-07-24T02:12:54.725Z,17.81
2023-07-24T02:15:21.191Z,17.74
2023-07-24T02:17:47.613Z,17.72
2023-07-24T02:20:14.012Z,17.73
2023-07-24T02:22:40.537Z,17.66
2023-07-24T02:25:07.451Z,17.57
2023-07-24T02:27:35.314Z,17.65
2023-07-24T02:30:03.118Z,17.50
2023-07-24T02:32:29.738Z,17.57
2023-07-24T02:34:56.345Z,17.61
2023-07-24T02:37:23.048Z,17.51
2023-07-24T02:39:49.471Z,17.52
2023-07-24T02:42:15.990Z,17.46
2023-07-24T02:44:42.378Z,17.45
2023-07-24T02:47:08.919Z,17.45
2023-07-24T02:49:35.405Z,17.38
2023-07-24T02:52:02.038Z,17.38
2023-07-24T02:54:28.434Z,17.37
2023-07-24T02:56:54.812Z,17.42
2023-07-24T02:59:21.283Z,17.35
2023-07-24T03:01:47.749Z,17.37
2023-07-24T03:04:14.129Z,17.38
2023-07-24T03:06:41.281Z,17.42
2023-07-24T03:09:08.077Z,17.37
2023-07-24T03:11:34.446Z,17.36
2023-07-24T03:14:00.869Z,17.40
2023-07-24T03:16:27.590Z,17.36
2023-07-24T03:18:54.207Z,17.34
2023-07-24T03:21:21.956Z,17.29
2023-07-24T03:23:48.414Z,17.27
2023-07-24T03:26:14.881Z,17.17
2023-07-24T03:28:41.258Z,17.16
2023-07-24T03:31:08.144Z,17.09
2023-07-24T03:33:34.620Z,17.08
2023-07-24T03:36:01.060Z,17.08
2023-07-24T03:38:27.436Z,17.05
2023-07-24T03:40:53.902Z,17.04
2023-07-24T03:43:20.257Z,17.03
2023-07-24T03:45:46.655Z,17.00
2023-07-24T03:48:13.078Z,16.98
2023-07-24T03:50:41.693Z,16.96
2023-07-24T03:53:08.046Z,16.88
2023-07-24T03:55:34.617Z,16.95
2023-07-24T03:58:01.196Z,16.91
2023-07-24T04:00:27.597Z,16.92
2023-07-24T04:02:54.202Z,16.96
2023-07-24T04:05:20.810Z,17.01
2023-07-24T04:07:47.182Z,17.04
2023-07-24T04:10:13.777Z,17.00
2023-07-24T04:12:41.225Z,17.05
2023-07-24T04:15:08.342Z,17.05
2023-07-24T04:17:36.838Z,17.06
2023-07-24T04:20:04.216Z,17.18
2023-07-24T04:22:30.628Z,17.20
2023-07-24T04:24:57.039Z,17.18
2023-07-24T04:27:23.446Z,17.20
2023-07-24T04:29:49.847Z,17.28
2023-07-24T04:32:16.257Z,17.30
2023-07-24T04:34:42.671Z,17.33
2023-07-24T04:37:09.095Z,17.37
2023-07-24T04:39:35.505Z,17.40
2023-07-24T04:42:01.876Z,17.42
2023-07-24T04:44:28.371Z,17.51
2023-07-24T04:46:56.599Z,17.44
2023-07-24T04:49:23.017Z,17.44
2023-07-24T04:51:49.432Z,17.42
2023-07-24T04:54:15.828Z,17.42
2023-07-24T04:56:42.239Z,17.46
2023-07-24T04:59:09.778Z,17.56
2023-07-24T05:01:36.243Z,17.71
2023-07-24T05:04:02.722Z,17.83
2023-07-24T05:06:29.418Z,18.07
2023-07-24T05:08:56.139Z,18.19
2023-07-24T05:11:22.588Z,18.13
2023-07-24T05:13:49.032Z,18.09
2023-07-24T05:16:15.424Z,18.08
2023-07-24T05:18:42.868Z,18.03
2023-07-24T05:21:09.290Z,18.02
2023-07-24T05:23:35.753Z,17.93
2023-07-24T05:26:04.344Z,17.97
2023-07-24T05:28:32.439Z,18.00
2023-07-24T05:31:06.599Z,18.01
2023-07-24T05:33:33.213Z,18.02
2023-07-24T05:36:04.718Z,18.13
2023-07-24T05:38:31.771Z,18.13
2023-07-24T05:40:59.289Z,18.25
2023-07-24T05:43:27.201Z,18.29
2023-07-24T05:45:54.494Z,18.40
2023-07-24T05:48:21.332Z,18.47
2023-07-24T05:50:48.638Z,18.60
2023-07-24T05:53:15.915Z,19.58
2023-07-24T05:55:43.417Z,20.81
2023-07-24T05:58:10.237Z,21.78
2023-07-24T06:00:37.539Z,22.60
2023-07-24T06:03:07.939Z,23.21
2023-07-24T06:05:34.962Z,23.74
2023-07-24T06:08:01.325Z,23.81
2023-07-24T06:10:27.747Z,23.89
2023-07-24T06:12:54.192Z,24.23
2023-07-24T06:15:20.619Z,24.48
2023-07-24T06:17:47.170Z,24.69
2023-07-24T06:20:13.587Z,24.68
2023-07-24T06:22:40.010Z,24.55
2023-07-24T06:25:06.726Z,24.31
2023-07-24T06:27:33.088Z,23.54
2023-07-24T06:30:12.795Z,23.03
2023-07-24T06:32:44.527Z,22.70
2023-07-24T06:35:11.152Z,22.54
2023-07-24T06:37:37.646Z,22.49
2023-07-24T06:40:04.448Z,22.72
2023-07-24T06:42:31.043Z,22.54
2023-07-24T06:44:57.423Z,22.75
2023-07-24T06:47:23.851Z,22.78
2023-07-24T06:49:50.297Z,22.66
2023-07-24T06:52:16.880Z,22.71
2023-07-24T06:54:43.364Z,22.43
2023-07-24T06:57:10.066Z,22.20
2023-07-24T06:59:36.437Z,22.23
2023-07-24T07:02:02.948Z,22.47
2023-07-24T07:04:29.405Z,22.47
2023-07-24T07:06:56.148Z,22.31
2023-07-24T07:09:22.513Z,22.29
2023-07-24T07:11:48.919Z,22.22
2023-07-24T07:14:16.033Z,22.24
2023-07-24T07:16:42.460Z,22.10
2023-07-24T07:19:10.442Z,22.09
2023-07-24T07:21:37.773Z,22.26
2023-07-24T07:24:04.466Z,22.34
2023-07-24T07:26:31.360Z,22.19
2023-07-24T07:28:58.099Z,22.23
2023-07-24T07:31:24.472Z,22.22
2023-07-24T07:33:50.920Z,22.07
2023-07-24T07:36:18.632Z,22.03
2023-07-24T07:38:45.562Z,21.92
2023-07-24T07:41:12.255Z,21.83
2023-07-24T07:43:39.949Z,21.66
2023-07-24T07:46:06.321Z,21.53
2023-07-24T07:48:33.776Z,21.41
2023-07-24T07:51:00.222Z,21.25
2023-07-24T07:53:26.704Z,21.30
2023-07-24T07:56:00.778Z,21.10
2023-07-24T07:58:27.311Z,21.04
2023-07-24T08:00:53.932Z,21.01
2023-07-24T08:03:20.435Z,21.09
2023-07-24T08:05:46.919Z,21.04
2023-07-24T08:08:13.346Z,21.19
2023-07-24T08:10:40.092Z,21.40
2023-07-24T08:13:07.757Z,21.41
2023-07-24T08:15:38.037Z,21.51
2023-07-24T08:18:06.003Z,21.52
2023-07-24T08:20:37.143Z,21.68
2023-07-24T08:23:04.129Z,21.67
2023-07-24T08:25:31.559Z,21.71
2023-07-24T08:28:05.445Z,21.77
2023-07-24T08:30:33.375Z,21.94
2023-07-24T08:33:00.266Z,22.18
2023-07-24T08:35:27.065Z,22.22
2023-07-24T08:37:53.470Z,22.45
2023-07-24T08:40:19.905Z,22.65
2023-07-24T08:42:50.486Z,22.77
2023-07-24T08:45:17.306Z,22.65
2023-07-24T08:47:45.330Z,22.66
2023-07-24T08:50:13.158Z,22.66
2023-07-24T08:52:40.423Z,22.85
2023-07-24T08:55:07.437Z,23.09
2023-07-24T08:57:33.884Z,23.03
2023-07-24T09:00:01.930Z,23.07
2023-07-24T09:02:28.427Z,23.06
2023-07-24T09:04:54.827Z,23.17
2023-07-24T09:07:21.312Z,23.46
2023-07-24T09:09:50.148Z,23.78
2023-07-24T09:12:17.440Z,24.06
2023-07-24T09:14:46.132Z,24.23
2023-07-24T09:17:12.634Z,24.07
2023-07-24T09:19:39.298Z,23.62
2023-07-24T09:22:17.787Z,23.38
2023-07-24T09:24:57.041Z,23.61
2023-07-24T09:27:29.616Z,23.95
2023-07-24T09:29:57.183Z,23.96
2023-07-24T09:32:25.781Z,23.98
2023-07-24T09:34:52.800Z,23.87
2023-07-24T09:37:31.586Z,24.03
2023-07-24T09:40:00.127Z,23.85
2023-07-24T09:42:48.600Z,23.93
2023-07-24T09:45:25.271Z,23.96
2023-07-24T09:47:57.976Z,24.00
2023-07-24T09:50:28.787Z,23.83
2023-07-24T09:52:56.724Z,23.71
2023-07-24T09:55:31.213Z,23.66
2023-07-24T09:57:58.202Z,23.73
2023-07-24T10:00:25.255Z,23.89
2023-07-24T10:02:52.104Z,24.11
2023-07-24T10:05:19.027Z,24.18
2023-07-24T10:07:46.009Z,23.83
2023-07-24T10:10:13.217Z,23.73
2023-07-24T10:12:40.349Z,23.62
2023-07-24T10:15:07.614Z,23.75
2023-07-24T10:17:38.722Z,24.12
2023-07-24T10:20:10.444Z,24.24
2023-07-24T10:22:42.232Z,24.37
2023-07-24T10:25:10.028Z,24.40
2023-07-24T10:27:47.533Z,24.59
2023-07-24T10:30:32.102Z,24.64
2023-07-24T10:33:18.261Z,24.77
2023-07-24T10:35:47.676Z,24.75
2023-07-24T10:38:17.334Z,24.75
2023-07-24T10:40:47.055Z,24.42
2023-07-24T10:43:18.411Z,24.22
2023-07-24T10:45:51.971Z,24.20
2023-07-24T10:48:19.781Z,24.21
2023-07-24T10:50:50.689Z,24.01
2023-07-24T10:53:21.379Z,23.89
2023-07-24T10:55:48.881Z,23.71
2023-07-24T10:58:15.552Z,23.74
2023-07-24T11:00:43.047Z,23.73
2023-07-24T11:03:14.404Z,23.81
2023-07-24T11:05:42.703Z,23.98
2023-07-24T11:08:16.468Z,24.15
2023-07-24T11:10:53.699Z,24.22
2023-07-24T11:13:22.739Z,24.49
2023-07-24T11:15:50.417Z,24.65
2023-07-24T11:18:17.738Z,25.04
2023-07-24T11:20:50.099Z,25.52
2023-07-24T11:23:17.027Z,25.80
2023-07-24T11:25:44.367Z,25.92
2023-07-24T11:28:12.723Z,25.83
2023-07-24T11:30:39.535Z,25.57
2023-07-24T11:33:09.511Z,25.41
2023-07-24T11:35:36.721Z,25.91
2023-07-24T11:38:04.412Z,26.24
2023-07-24T11:40:47.425Z,26.36
2023-07-24T11:43:25.035Z,26.22
2023-07-24T11:45:53.677Z,26.34
2023-07-24T11:48:21.215Z,26.11
2023-07-24T11:50:53.156Z,25.90
2023-07-24T11:53:31.098Z,26.33
2023-07-24T11:55:59.447Z,26.68
2023-07-24T11:58:30.810Z,27.24
2023-07-24T12:00:57.706Z,27.01
2023-07-24T12:03:29.744Z,26.32
2023-07-24T12:05:56.955Z,26.10
2023-07-24T12:08:35.844Z,26.54
2023-07-24T12:11:03.392Z,26.57
2023-07-24T12:13:30.242Z,26.35
2023-07-24T12:15:56.917Z,26.41
2023-07-24T12:18:23.391Z,26.80
2023-07-24T12:20:49.771Z,26.43
2023-07-24T12:23:17.087Z,26.27
2023-07-24T12:25:43.570Z,25.82
2023-07-24T12:28:10.037Z,25.70
2023-07-24T12:30:36.507Z,25.62
2023-07-24T12:33:03.057Z,25.42
2023-07-24T12:35:29.728Z,25.25
2023-07-24T12:37:56.232Z,25.87
2023-07-24T12:40:22.726Z,26.00
2023-07-24T12:42:49.212Z,26.36
2023-07-24T12:45:15.849Z,26.80
2023-07-24T12:47:42.274Z,26.69
2023-07-24T12:50:09.236Z,26.49
2023-07-24T12:52:35.705Z,26.83
2023-07-24T12:55:03.056Z,26.63
2023-07-24T12:57:30.224Z,26.07
2023-07-24T12:59:56.779Z,26.29
2023-07-24T13:02:23.215Z,25.83
2023-07-24T13:04:49.666Z,25.74
2023-07-24T13:07:16.193Z,25.37
2023-07-24T13:09:42.625Z,25.01
2023-07-24T13:12:09.929Z,24.39
2023-07-24T13:14:37.730Z,24.28
2023-07-24T13:17:05.739Z,24.20
2023-07-24T13:19:32.403Z,23.77
2023-07-24T13:21:58.878Z,23.52
2023-07-24T13:24:25.516Z,23.14
2023-07-24T13:26:51.901Z,22.67
2023-07-24T13:29:18.408Z,22.42
2023-07-24T13:31:45.475Z,22.08
2023-07-24T13:34:12.005Z,21.57
2023-07-24T13:36:38.451Z,21.55
2023-07-24T13:39:04.861Z,21.32
2023-07-24T13:41:31.548Z,21.10
2023-07-24T13:43:58.220Z,20.95
2023-07-24T13:46:24.734Z,20.93
2023-07-24T13:48:51.215Z,20.64
2023-07-24T13:51:17.613Z,20.48
2023-07-24T13:53:44.033Z,20.64
2023-07-24T13:56:10.612Z,20.73
2023-07-24T13:58:37.012Z,20.82
2023-07-24T14:01:03.627Z,21.30
2023-07-24T14:03:30.567Z,20.93
2023-07-24T14:05:57.847Z,20.82
2023-07-24T14:08:24.570Z,21.12
2023-07-24T14:10:51.561Z,21.58
2023-07-24T14:13:18.289Z,21.60
2023-07-24T14:15:44.667Z,21.41
2023-07-24T14:18:11.094Z,21.13
2023-07-24T14:20:38.414Z,20.84
2023-07-24T14:23:04.818Z,20.72
2023-07-24T14:25:31.230Z,20.74
2023-07-24T14:27:57.632Z,20.57
2023-07-24T14:30:24.022Z,20.60
2023-07-24T14:32:51.674Z,20.73
2023-07-24T14:35:18.339Z,20.84
2023-07-24T14:37:44.847Z,20.95
2023-07-24T14:40:13.017Z,20.74
2023-07-24T14:42:39.414Z,20.62
2023-07-24T14:45:06.529Z,20.53
2023-07-24T14:47:33.071Z,20.47
2023-07-24T14:49:59.917Z,20.42
2023-07-24T14:52:26.311Z,20.45
2023-07-24T14:54:52.740Z,20.32
2023-07-24T14:57:25.371Z,20.50
2023-07-24T14:59:53.357Z,20.46
2023-07-24T15:02:19.920Z,20.63
2023-07-24T15:04:46.529Z,21.17
2023-07-24T15:07:12.876Z,21.27
2023-07-24T15:09:39.261Z,21.30
2023-07-24T15:12:06.295Z,21.06
2023-07-24T15:14:32.863Z,20.89
2023-07-24T15:16:59.253Z,20.70
2023-07-24T15:19:25.656Z,20.65
2023-07-24T15:21:52.042Z,20.56
2023-07-24T15:24:19.001Z,20.65
2023-07-24T15:26:46.754Z,20.67
2023-07-24T15:29:17.169Z,20.71
2023-07-24T15:31:45.606Z,20.73
2023-07-24T15:34:12.036Z,20.69
2023-07-24T15:36:38.710Z,20.86
2023-07-24T15:39:05.558Z,21.06
2023-07-24T15:41:33.009Z,20.96
2023-07-24T15:44:00.379Z,20.81
2023-07-24T15:46:29.562Z,20.65
2023-07-24T15:48:57.657Z,20.69
2023-07-24T15:51:25.784Z,20.84
2023-07-24T15:53:52.293Z,21.01
2023-07-24T15:56:18.825Z,21.08
2023-07-24T15:58:45.457Z,21.16
2023-07-24T16:01:12.023Z,21.21
2023-07-24T16:03:38.940Z,21.13
2023-07-24T16:06:06.201Z,21.09
2023-07-24T16:08:32.772Z,20.95
2023-07-24T16:10:59.402Z,20.95
2023-07-24T16:13:25.847Z,20.93
2023-07-24T16:15:52.243Z,20.95
2023-07-24T16:18:22.961Z,20.77
2023-07-24T16:20:49.488Z,20.84
2023-07-24T16:23:16.914Z,20.97
2023-07-24T16:25:43.325Z,20.93
2023-07-24T16:28:09.718Z,20.75
2023-07-24T16:30:36.431Z,20.78
2023-07-24T16:33:03.004Z,20.90
2023-07-24T16:35:29.637Z,20.92
2023-07-24T16:37:56.099Z,21.14
2023-07-24T16:40:22.566Z,21.29
2023-07-24T16:42:51.647Z,21.47
2023-07-24T16:47:52.057Z,21.83
2023-07-24T16:50:18.556Z,21.68
2023-07-24T16:52:45.040Z,21.61
2023-07-24T16:55:11.762Z,21.61
2023-07-24T16:57:39.110Z,21.80
2023-07-24T17:00:06.600Z,22.00
2023-07-24T17:02:34.348Z,22.01
2023-07-24T17:05:00.808Z,22.08
2023-07-24T17:07:27.290Z,22.05
2023-07-24T17:09:53.661Z,21.86
2023-07-24T17:12:20.062Z,21.62
2023-07-24T17:14:46.711Z,21.57
2023-07-24T17:17:13.936Z,21.68
2023-07-24T17:19:42.776Z,21.55
2023-07-24T17:22:09.649Z,21.51
2023-07-24T17:24:36.160Z,21.50
2023-07-24T17:27:02.766Z,21.59
2023-07-24T17:29:29.185Z,21.81
2023-07-24T17:31:55.608Z,21.90
2023-07-24T17:34:21.987Z,21.67
2023-07-24T17:36:48.360Z,21.62
2023-07-24T17:39:14.789Z,21.35
2023-07-24T17:41:41.163Z,21.14
2023-07-24T17:44:07.570Z,20.93
2023-07-24T17:46:33.985Z,20.63
2023-07-24T17:49:00.612Z,20.60
2023-07-24T17:51:27.259Z,20.47
2023-07-24T17:53:53.764Z,20.37
2023-07-24T17:56:20.206Z,20.29
2023-07-24T17:58:46.645Z,20.21
2023-07-24T18:01:13.067Z,20.21
2023-07-24T18:03:39.508Z,20.22
2023-07-24T18:06:06.003Z,20.14
2023-07-24T18:08:32.486Z,20.05
2023-07-24T18:10:59.034Z,19.98
2023-07-24T18:13:25.453Z,20.03
2023-07-24T18:15:51.820Z,19.94
2023-07-24T18:18:18.245Z,20.04
2023-07-24T18:20:44.744Z,20.04
2023-07-24T18:23:11.246Z,19.84
2023-07-24T18:25:37.652Z,19.74
2023-07-24T18:28:04.233Z,19.70
2023-07-24T18:30:31.098Z,19.65
2023-07-24T18:32:58.102Z,19.58
2023-07-24T18:35:25.061Z,19.27
2023-07-24T18:37:51.948Z,19.10
2023-07-24T18:40:18.525Z,18.86
2023-07-24T18:42:45.007Z,18.61
2023-07-24T18:45:11.488Z,18.42
2023-07-24T18:47:38.075Z,18.28
2023-07-24T18:50:04.996Z,18.06
2023-07-24T18:52:31.365Z,17.90
2023-07-24T18:55:00.364Z,17.80
2023-07-24T18:57:26.849Z,17.68
2023-07-24T18:59:53.386Z,17.65
2023-07-24T19:02:19.884Z,17.59
2023-07-24T19:04:46.359Z,17.56
2023-07-24T19:07:12.736Z,17.31
2023-07-24T19:09:39.101Z,17.04
2023-07-24T19:12:05.981Z,17.00
2023-07-24T19:14:32.508Z,16.91
2023-07-24T19:16:58.958Z,16.89
2023-07-24T19:19:26.608Z,16.85
2023-07-24T19:21:53.424Z,16.76
2023-07-24T19:24:19.960Z,16.73
2023-07-24T19:26:46.563Z,16.68
2023-07-24T19:29:13.046Z,16.59
2023-07-24T19:31:39.465Z,16.64
2023-07-24T19:34:05.908Z,16.57
2023-07-24T19:36:32.504Z,16.51
2023-07-24T19:38:58.933Z,16.44
2023-07-24T19:41:26.501Z,16.51
2023-07-24T19:43:52.982Z,16.47
2023-07-24T19:46:19.661Z,16.47
2023-07-24T19:48:46.150Z,16.49
2023-07-24T19:51:12.714Z,16.40
2023-07-24T19:53:39.149Z,16.45
2023-07-24T19:56:05.606Z,16.50
2023-07-24T19:58:36.269Z,16.46
2023-07-24T20:01:04.752Z,16.44
2023-07-24T20:03:31.679Z,16.45
2023-07-24T20:06:00.994Z,16.40
2023-07-24T20:08:30.175Z,16.41
2023-07-24T20:10:58.063Z,16.44
2023-07-24T20:13:25.396Z,16.40
2023-07-24T20:15:51.869Z,16.41
2023-07-24T20:18:18.242Z,16.42
2023-07-24T20:20:48.949Z,16.45
2023-07-24T20:23:16.548Z,16.49
2023-07-24T20:25:45.947Z,16.46
2023-07-24T20:28:13.182Z,16.48
2023-07-24T20:30:40.344Z,16.42
2023-07-24T20:33:06.835Z,16.30
2023-07-24T20:35:33.666Z,16.35
2023-07-24T20:38:04.315Z,16.35
2023-07-24T20:40:31.241Z,16.30
2023-07-24T20:42:57.639Z,16.29
2023-07-24T20:45:25.078Z,16.31
2023-07-24T20:47:51.579Z,16.37
2023-07-24T20:50:18.071Z,16.28
2023-07-24T20:52:44.460Z,16.27
2023-07-24T20:55:10.865Z,16.24
2023-07-24T20:57:37.328Z,16.29
2023-07-24T21:00:05.021Z,16.24
2023-07-24T21:02:31.407Z,16.21
2023-07-24T21:04:57.933Z,16.15
2023-07-24T21:07:24.371Z,16.21
2023-07-24T21:09:51.708Z,16.27
2023-07-24T21:12:18.101Z,16.22
2023-07-24T21:14:45.727Z,16.20
2023-07-24T21:17:12.207Z,16.20
2023-07-24T21:19:38.704Z,16.19
2023-07-24T21:22:05.376Z,16.17
2023-07-24T21:24:31.813Z,16.19
2023-07-24T21:26:59.500Z,16.10
2023-07-24T21:29:25.874Z,16.16
2023-07-24T21:31:52.309Z,16.12
2023-07-24T21:34:20.955Z,16.09
2023-07-24T21:36:47.424Z,16.09
2023-07-24T21:39:13.906Z,16.16
2023-07-24T21:41:40.307Z,16.15
2023-07-24T21:44:06.681Z,16.17
2023-07-24T21:46:33.374Z,16.08
2023-07-24T21:48:59.743Z,16.02
2023-07-24T21:51:26.140Z,15.95
2023-07-24T21:53:52.522Z,15.97
2023-07-24T21:56:18.987Z,15.97
2023-07-24T21:58:45.436Z,15.94
2023-07-24T22:01:11.972Z,15.90
2023-07-24T22:03:38.445Z,15.87
2023-07-24T22:06:07.525Z,15.87
2023-07-24T22:08:34.365Z,15.84
2023-07-24T22:11:00.754Z,15.87
2023-07-24T22:13:27.278Z,15.89
2023-07-24T22:15:53.773Z,15.95
2023-07-24T22:18:20.157Z,15.90
2023-07-24T22:20:46.727Z,15.84
2023-07-24T22:23:13.261Z,15.87
2023-07-24T22:25:40.245Z,15.89
2023-07-24T22:28:06.675Z,15.89
2023-07-24T22:30:33.250Z,15.86
2023-07-24T22:32:59.729Z,15.86
2023-07-24T22:35:26.278Z,15.92
2023-07-24T22:37:52.672Z,15.98
2023-07-24T22:40:19.154Z,16.05
2023-07-24T22:42:46.626Z,16.02
2023-07-24T22:45:13.067Z,16.02
2023-07-24T22:47:39.574Z,15.98
2023-07-24T22:50:06.571Z,15.88
2023-07-24T22:52:32.980Z,15.90
2023-07-24T22:54:59.390Z,15.89
2023-07-24T22:57:25.823Z,15.87
2023-07-24T22:59:52.293Z,15.84
2023-07-24T23:02:18.692Z,15.86
2023-07-24T23:04:45.079Z,15.88
2023-07-24T23:07:11.759Z,15.88
2023-07-24T23:09:38.201Z,15.92
2023-07-24T23:12:07.000Z,15.89
2023-07-24T23:14:33.406Z,15.96
2023-07-24T23:16:59.930Z,15.91
2023-07-24T23:19:26.475Z,15.96
2023-07-24T23:21:52.872Z,15.91
2023-07-24T23:24:19.331Z,15.97
2023-07-24T23:26:45.917Z,15.95
2023-07-24T23:29:12.599Z,15.95
2023-07-24T23:31:39.128Z,16.01
2023-07-24T23:34:05.990Z,15.98
2023-07-24T23:36:32.428Z,15.94
2023-07-24T23:38:58.955Z,15.91
2023-07-24T23:41:26.687Z,15.82
2023-07-24T23:43:53.308Z,15.83
2023-07-24T23:46:19.762Z,15.81
2023-07-24T23:48:46.300Z,15.81
2023-07-24T23:51:17.379Z,15.78
2023-07-24T23:53:44.732Z,15.72
2023-07-24T23:56:11.853Z,15.75
2023-07-24T23:58:38.520Z,15.77
